sensor_id;sensor_type;location;lat;lon;timestamp;P1;durP1;ratioP1;P2;durP2;ratioP2
20894;SDS011;10607;42.066;24.742;2023-05-17T00:00:10;9.38;;;4.60;;
20894;SDS011;10607;42.066;24.742;2023-05-17T00:02:36;13.50;;;6.20;;
20894;SDS011;10607;42.066;24.742;2023-05-17T00:05:01;10.82;;;4.75;;
20894;SDS011;10607;42.066;24.742;2023-05-17T00:07:27;10.25;;;4.40;;
20894;SDS011;10607;42.066;24.742;2023-05-17T00:09:52;7.95;;;3.80;;
20894;SDS011;10607;42.066;24.742;2023-05-17T00:12:17;11.10;;;4.30;;
20894;SDS011;10607;42.066;24.742;2023-05-17T00:14:42;9.15;;;3.85;;
20894;SDS011;10607;42.066;24.742;2023-05-17T00:17:08;13.88;;;4.00;;
20894;SDS011;10607;42.066;24.742;2023-05-17T00:19:33;6.45;;;3.63;;
20894;SDS011;10607;42.066;24.742;2023-05-17T00:21:58;8.23;;;4.13;;
20894;SDS011;10607;42.066;24.742;2023-05-17T00:24:24;10.48;;;3.90;;
20894;SDS011;10607;42.066;24.742;2023-05-17T00:26:50;12.27;;;4.32;;
20894;SDS011;10607;42.066;24.742;2023-05-17T00:29:15;6.72;;;3.85;;
20894;SDS011;10607;42.066;24.742;2023-05-17T00:31:41;9.43;;;4.80;;
20894;SDS011;10607;42.066;24.742;2023-05-17T00:34:06;8.27;;;4.43;;
20894;SDS011;10607;42.066;24.742;2023-05-17T00:36:31;9.85;;;4.30;;
20894;SDS011;10607;42.066;24.742;2023-05-17T00:38:56;6.90;;;4.47;;
20894;SDS011;10607;42.066;24.742;2023-05-17T00:41:22;9.80;;;3.88;;
20894;SDS011;10607;42.066;24.742;2023-05-17T00:43:47;9.55;;;4.50;;
20894;SDS011;10607;42.066;24.742;2023-05-17T00:46:12;11.95;;;4.97;;
20894;SDS011;10607;42.066;24.742;2023-05-17T00:48:38;8.73;;;4.85;;
20894;SDS011;10607;42.066;24.742;2023-05-17T00:51:03;8.80;;;5.22;;
20894;SDS011;10607;42.066;24.742;2023-05-17T00:53:28;10.95;;;4.30;;
20894;SDS011;10607;42.066;24.742;2023-05-17T00:55:54;9.70;;;4.43;;
20894;SDS011;10607;42.066;24.742;2023-05-17T00:58:20;12.38;;;4.47;;
20894;SDS011;10607;42.066;24.742;2023-05-17T01:00:45;10.98;;;4.45;;
20894;SDS011;10607;42.066;24.742;2023-05-17T01:03:11;11.38;;;4.78;;
20894;SDS011;10607;42.066;24.742;2023-05-17T01:05:36;13.20;;;4.35;;
20894;SDS011;10607;42.066;24.742;2023-05-17T01:08:02;7.70;;;4.90;;
20894;SDS011;10607;42.066;24.742;2023-05-17T01:10:30;9.27;;;4.10;;
20894;SDS011;10607;42.066;24.742;2023-05-17T01:15:43;11.25;;;5.00;;
20894;SDS011;10607;42.066;24.742;2023-05-17T01:18:20;10.88;;;5.22;;
20894;SDS011;10607;42.066;24.742;2023-05-17T01:20:47;11.32;;;5.68;;
20894;SDS011;10607;42.066;24.742;2023-05-17T01:28:24;12.25;;;6.18;;
20894;SDS011;10607;42.066;24.742;2023-05-17T01:30:50;13.20;;;7.10;;
20894;SDS011;10607;42.066;24.742;2023-05-17T01:33:16;20.15;;;7.53;;
20894;SDS011;10607;42.066;24.742;2023-05-17T01:35:42;13.05;;;6.10;;
20894;SDS011;10607;42.066;24.742;2023-05-17T01:38:07;14.25;;;6.68;;
20894;SDS011;10607;42.066;24.742;2023-05-17T01:40:33;14.30;;;7.53;;
20894;SDS011;10607;42.066;24.742;2023-05-17T01:43:16;14.10;;;7.32;;
20894;SDS011;10607;42.066;24.742;2023-05-17T01:48:39;12.65;;;5.80;;
20894;SDS011;10607;42.066;24.742;2023-05-17T01:51:08;8.98;;;6.25;;
20894;SDS011;10607;42.066;24.742;2023-05-17T01:53:46;11.38;;;6.50;;
20894;SDS011;10607;42.066;24.742;2023-05-17T01:56:15;14.32;;;6.57;;
20894;SDS011;10607;42.066;24.742;2023-05-17T01:58:46;17.02;;;6.70;;
20894;SDS011;10607;42.066;24.742;2023-05-17T02:01:13;12.68;;;6.00;;
20894;SDS011;10607;42.066;24.742;2023-05-17T02:03:39;12.18;;;7.55;;
20894;SDS011;10607;42.066;24.742;2023-05-17T02:06:04;15.52;;;6.97;;
20894;SDS011;10607;42.066;24.742;2023-05-17T02:08:30;9.52;;;6.72;;
20894;SDS011;10607;42.066;24.742;2023-05-17T02:10:55;10.20;;;6.50;;
20894;SDS011;10607;42.066;24.742;2023-05-17T02:13:21;11.18;;;6.72;;
20894;SDS011;10607;42.066;24.742;2023-05-17T02:15:46;15.50;;;7.00;;
20894;SDS011;10607;42.066;24.742;2023-05-17T02:18:11;16.80;;;7.88;;
20894;SDS011;10607;42.066;24.742;2023-05-17T02:20:37;14.32;;;7.80;;
20894;SDS011;10607;42.066;24.742;2023-05-17T02:23:02;13.95;;;7.40;;
20894;SDS011;10607;42.066;24.742;2023-05-17T02:25:27;14.35;;;7.57;;
20894;SDS011;10607;42.066;24.742;2023-05-17T02:27:52;12.82;;;8.23;;
20894;SDS011;10607;42.066;24.742;2023-05-17T02:30:18;10.57;;;6.88;;
20894;SDS011;10607;42.066;24.742;2023-05-17T02:32:46;15.63;;;7.35;;
20894;SDS011;10607;42.066;24.742;2023-05-17T02:35:11;16.33;;;7.18;;
20894;SDS011;10607;42.066;24.742;2023-05-17T02:37:36;13.70;;;7.72;;
20894;SDS011;10607;42.066;24.742;2023-05-17T02:40:02;21.27;;;7.75;;
20894;SDS011;10607;42.066;24.742;2023-05-17T02:42:32;12.98;;;7.93;;
20894;SDS011;10607;42.066;24.742;2023-05-17T02:44:57;15.35;;;9.80;;
20894;SDS011;10607;42.066;24.742;2023-05-17T02:47:23;17.50;;;9.43;;
20894;SDS011;10607;42.066;24.742;2023-05-17T02:49:48;18.50;;;9.43;;
20894;SDS011;10607;42.066;24.742;2023-05-17T02:52:14;19.30;;;9.68;;
20894;SDS011;10607;42.066;24.742;2023-05-17T02:54:39;19.17;;;9.98;;
20894;SDS011;10607;42.066;24.742;2023-05-17T02:57:05;18.38;;;9.68;;
20894;SDS011;10607;42.066;24.742;2023-05-17T02:59:31;21.70;;;9.55;;
20894;SDS011;10607;42.066;24.742;2023-05-17T03:01:56;20.35;;;10.48;;
20894;SDS011;10607;42.066;24.742;2023-05-17T03:04:21;19.80;;;10.25;;
20894;SDS011;10607;42.066;24.742;2023-05-17T03:06:47;23.95;;;10.52;;
20894;SDS011;10607;42.066;24.742;2023-05-17T03:09:12;20.45;;;9.57;;
20894;SDS011;10607;42.066;24.742;2023-05-17T03:11:37;23.40;;;9.55;;
20894;SDS011;10607;42.066;24.742;2023-05-17T03:14:03;19.13;;;10.70;;
20894;SDS011;10607;42.066;24.742;2023-05-17T03:16:28;17.55;;;9.82;;
20894;SDS011;10607;42.066;24.742;2023-05-17T03:18:53;19.73;;;9.75;;
20894;SDS011;10607;42.066;24.742;2023-05-17T03:21:18;18.73;;;10.80;;
20894;SDS011;10607;42.066;24.742;2023-05-17T03:23:44;22.35;;;11.50;;
20894;SDS011;10607;42.066;24.742;2023-05-17T03:26:09;16.73;;;10.82;;
20894;SDS011;10607;42.066;24.742;2023-05-17T03:28:34;23.08;;;12.00;;
20894;SDS011;10607;42.066;24.742;2023-05-17T03:31:00;16.42;;;12.18;;
20894;SDS011;10607;42.066;24.742;2023-05-17T03:33:25;22.75;;;12.77;;
20894;SDS011;10607;42.066;24.742;2023-05-17T03:35:50;20.35;;;12.23;;
20894;SDS011;10607;42.066;24.742;2023-05-17T03:38:16;17.75;;;11.57;;
20894;SDS011;10607;42.066;24.742;2023-05-17T03:40:41;19.63;;;12.70;;
20894;SDS011;10607;42.066;24.742;2023-05-17T03:43:06;19.10;;;12.25;;
20894;SDS011;10607;42.066;24.742;2023-05-17T03:45:33;20.48;;;12.82;;
20894;SDS011;10607;42.066;24.742;2023-05-17T03:47:58;25.92;;;14.05;;
20894;SDS011;10607;42.066;24.742;2023-05-17T03:50:23;20.85;;;13.20;;
20894;SDS011;10607;42.066;24.742;2023-05-17T03:52:49;19.40;;;13.18;;
20894;SDS011;10607;42.066;24.742;2023-05-17T03:55:14;20.95;;;13.27;;
20894;SDS011;10607;42.066;24.742;2023-05-17T03:57:39;19.83;;;12.93;;
20894;SDS011;10607;42.066;24.742;2023-05-17T04:00:05;25.80;;;14.05;;
20894;SDS011;10607;42.066;24.742;2023-05-17T04:02:33;28.25;;;15.50;;
20894;SDS011;10607;42.066;24.742;2023-05-17T04:04:58;22.10;;;14.43;;
20894;SDS011;10607;42.066;24.742;2023-05-17T04:07:23;27.80;;;15.18;;
20894;SDS011;10607;42.066;24.742;2023-05-17T04:09:49;22.67;;;14.30;;
20894;SDS011;10607;42.066;24.742;2023-05-17T04:12:14;26.58;;;15.13;;
20894;SDS011;10607;42.066;24.742;2023-05-17T04:14:40;26.42;;;15.55;;
20894;SDS011;10607;42.066;24.742;2023-05-17T04:17:05;26.50;;;15.15;;
20894;SDS011;10607;42.066;24.742;2023-05-17T04:19:30;30.25;;;17.05;;
20894;SDS011;10607;42.066;24.742;2023-05-17T04:21:56;23.27;;;16.42;;
20894;SDS011;10607;42.066;24.742;2023-05-17T04:24:21;26.48;;;16.25;;
20894;SDS011;10607;42.066;24.742;2023-05-17T04:26:46;29.33;;;15.80;;
20894;SDS011;10607;42.066;24.742;2023-05-17T04:29:12;25.23;;;15.02;;
20894;SDS011;10607;42.066;24.742;2023-05-17T04:31:37;27.90;;;16.80;;
20894;SDS011;10607;42.066;24.742;2023-05-17T04:34:02;27.17;;;16.23;;
20894;SDS011;10607;42.066;24.742;2023-05-17T04:36:27;26.45;;;15.50;;
20894;SDS011;10607;42.066;24.742;2023-05-17T04:38:54;28.50;;;15.70;;
20894;SDS011;10607;42.066;24.742;2023-05-17T04:41:19;28.58;;;15.02;;
20894;SDS011;10607;42.066;24.742;2023-05-17T04:43:44;29.02;;;16.17;;
20894;SDS011;10607;42.066;24.742;2023-05-17T04:46:10;30.50;;;17.75;;
20894;SDS011;10607;42.066;24.742;2023-05-17T04:48:35;31.48;;;20.52;;
20894;SDS011;10607;42.066;24.742;2023-05-17T04:51:03;32.88;;;18.92;;
20894;SDS011;10607;42.066;24.742;2023-05-17T04:53:28;30.42;;;17.42;;
20894;SDS011;10607;42.066;24.742;2023-05-17T04:55:55;36.80;;;18.60;;
20894;SDS011;10607;42.066;24.742;2023-05-17T04:58:20;35.47;;;18.38;;
20894;SDS011;10607;42.066;24.742;2023-05-17T05:00:45;33.03;;;19.23;;
20894;SDS011;10607;42.066;24.742;2023-05-17T05:03:11;42.17;;;21.50;;
20894;SDS011;10607;42.066;24.742;2023-05-17T05:05:36;37.30;;;20.30;;
20894;SDS011;10607;42.066;24.742;2023-05-17T05:08:01;33.72;;;19.33;;
20894;SDS011;10607;42.066;24.742;2023-05-17T05:10:26;32.95;;;19.90;;
20894;SDS011;10607;42.066;24.742;2023-05-17T05:12:55;37.25;;;19.38;;
20894;SDS011;10607;42.066;24.742;2023-05-17T05:15:20;37.70;;;19.77;;
20894;SDS011;10607;42.066;24.742;2023-05-17T05:17:46;38.00;;;20.17;;
20894;SDS011;10607;42.066;24.742;2023-05-17T05:20:11;39.17;;;18.60;;
20894;SDS011;10607;42.066;24.742;2023-05-17T05:22:37;33.70;;;18.40;;
20894;SDS011;10607;42.066;24.742;2023-05-17T05:25:02;35.03;;;18.52;;
20894;SDS011;10607;42.066;24.742;2023-05-17T05:27:29;34.05;;;19.38;;
20894;SDS011;10607;42.066;24.742;2023-05-17T05:29:54;32.80;;;18.17;;
20894;SDS011;10607;42.066;24.742;2023-05-17T05:32:20;29.45;;;17.60;;
20894;SDS011;10607;42.066;24.742;2023-05-17T05:34:45;37.17;;;18.80;;
20894;SDS011;10607;42.066;24.742;2023-05-17T05:37:10;37.97;;;18.00;;
20894;SDS011;10607;42.066;24.742;2023-05-17T05:39:36;32.38;;;17.10;;
20894;SDS011;10607;42.066;24.742;2023-05-17T05:42:01;30.60;;;17.42;;
20894;SDS011;10607;42.066;24.742;2023-05-17T05:44:28;38.38;;;17.58;;
20894;SDS011;10607;42.066;24.742;2023-05-17T05:46:53;30.27;;;17.27;;
20894;SDS011;10607;42.066;24.742;2023-05-17T05:49:18;28.42;;;15.63;;
20894;SDS011;10607;42.066;24.742;2023-05-17T05:51:44;37.20;;;15.77;;
20894;SDS011;10607;42.066;24.742;2023-05-17T05:54:10;34.70;;;17.52;;
20894;SDS011;10607;42.066;24.742;2023-05-17T05:56:35;27.00;;;15.98;;
20894;SDS011;10607;42.066;24.742;2023-05-17T05:59:00;27.63;;;16.45;;
20894;SDS011;10607;42.066;24.742;2023-05-17T06:01:26;27.63;;;14.55;;
20894;SDS011;10607;42.066;24.742;2023-05-17T06:03:52;29.02;;;15.93;;
20894;SDS011;10607;42.066;24.742;2023-05-17T06:06:18;31.73;;;15.70;;
20894;SDS011;10607;42.066;24.742;2023-05-17T06:08:43;28.77;;;15.73;;
20894;SDS011;10607;42.066;24.742;2023-05-17T06:11:09;41.15;;;18.95;;
20894;SDS011;10607;42.066;24.742;2023-05-17T06:13:35;37.17;;;18.63;;
20894;SDS011;10607;42.066;24.742;2023-05-17T06:16:00;33.88;;;15.88;;
20894;SDS011;10607;42.066;24.742;2023-05-17T06:18:25;24.60;;;16.25;;
20894;SDS011;10607;42.066;24.742;2023-05-17T06:20:51;34.45;;;16.90;;
20894;SDS011;10607;42.066;24.742;2023-05-17T06:23:16;34.60;;;16.45;;
20894;SDS011;10607;42.066;24.742;2023-05-17T06:25:41;33.35;;;16.83;;
20894;SDS011;10607;42.066;24.742;2023-05-17T06:28:06;31.58;;;17.30;;
20894;SDS011;10607;42.066;24.742;2023-05-17T06:30:33;35.60;;;17.05;;
20894;SDS011;10607;42.066;24.742;2023-05-17T06:32:58;28.92;;;17.25;;
20894;SDS011;10607;42.066;24.742;2023-05-17T06:35:23;30.63;;;16.25;;
20894;SDS011;10607;42.066;24.742;2023-05-17T06:37:49;32.13;;;14.32;;
20894;SDS011;10607;42.066;24.742;2023-05-17T06:40:14;31.60;;;14.57;;
20894;SDS011;10607;42.066;24.742;2023-05-17T06:42:39;33.33;;;14.88;;
20894;SDS011;10607;42.066;24.742;2023-05-17T06:45:05;29.98;;;14.35;;
20894;SDS011;10607;42.066;24.742;2023-05-17T06:47:30;25.88;;;13.27;;
20894;SDS011;10607;42.066;24.742;2023-05-17T06:49:56;23.45;;;12.60;;
20894;SDS011;10607;42.066;24.742;2023-05-17T06:52:21;34.40;;;13.43;;
20894;SDS011;10607;42.066;24.742;2023-05-17T06:54:46;32.25;;;14.00;;
20894;SDS011;10607;42.066;24.742;2023-05-17T06:57:11;26.20;;;13.80;;
20894;SDS011;10607;42.066;24.742;2023-05-17T06:59:37;27.73;;;13.30;;
20894;SDS011;10607;42.066;24.742;2023-05-17T07:02:02;39.05;;;14.55;;
20894;SDS011;10607;42.066;24.742;2023-05-17T07:04:28;28.05;;;14.15;;
20894;SDS011;10607;42.066;24.742;2023-05-17T07:06:53;27.85;;;14.93;;
20894;SDS011;10607;42.066;24.742;2023-05-17T07:09:21;32.17;;;13.93;;
20894;SDS011;10607;42.066;24.742;2023-05-17T07:11:47;28.23;;;13.50;;
20894;SDS011;10607;42.066;24.742;2023-05-17T07:14:12;38.63;;;14.80;;
20894;SDS011;10607;42.066;24.742;2023-05-17T07:16:37;30.77;;;14.63;;
20894;SDS011;10607;42.066;24.742;2023-05-17T07:19:03;26.10;;;13.80;;
20894;SDS011;10607;42.066;24.742;2023-05-17T07:21:28;27.73;;;13.55;;
20894;SDS011;10607;42.066;24.742;2023-05-17T07:23:53;28.83;;;14.43;;
20894;SDS011;10607;42.066;24.742;2023-05-17T07:26:19;29.63;;;15.27;;
20894;SDS011;10607;42.066;24.742;2023-05-17T07:28:44;23.02;;;14.30;;
20894;SDS011;10607;42.066;24.742;2023-05-17T07:31:10;26.80;;;13.57;;
20894;SDS011;10607;42.066;24.742;2023-05-17T07:33:38;32.45;;;15.25;;
20894;SDS011;10607;42.066;24.742;2023-05-17T07:36:04;30.50;;;15.05;;
20894;SDS011;10607;42.066;24.742;2023-05-17T07:38:30;29.77;;;15.25;;
20894;SDS011;10607;42.066;24.742;2023-05-17T07:40:55;30.77;;;15.68;;
20894;SDS011;10607;42.066;24.742;2023-05-17T07:43:21;29.77;;;16.45;;
20894;SDS011;10607;42.066;24.742;2023-05-17T07:45:46;31.15;;;17.52;;
20894;SDS011;10607;42.066;24.742;2023-05-17T07:48:11;31.50;;;15.70;;
20894;SDS011;10607;42.066;24.742;2023-05-17T07:50:37;37.45;;;16.65;;
20894;SDS011;10607;42.066;24.742;2023-05-17T07:53:02;34.33;;;16.85;;
20894;SDS011;10607;42.066;24.742;2023-05-17T07:55:27;37.05;;;17.15;;
20894;SDS011;10607;42.066;24.742;2023-05-17T07:57:53;30.75;;;16.90;;
20894;SDS011;10607;42.066;24.742;2023-05-17T08:00:18;32.58;;;18.05;;
20894;SDS011;10607;42.066;24.742;2023-05-17T08:02:44;35.50;;;17.50;;
20894;SDS011;10607;42.066;24.742;2023-05-17T08:05:10;32.53;;;18.88;;
20894;SDS011;10607;42.066;24.742;2023-05-17T08:07:35;35.58;;;18.73;;
20894;SDS011;10607;42.066;24.742;2023-05-17T08:10:00;31.83;;;18.27;;
20894;SDS011;10607;42.066;24.742;2023-05-17T08:12:26;34.30;;;18.92;;
20894;SDS011;10607;42.066;24.742;2023-05-17T08:14:51;32.47;;;18.58;;
20894;SDS011;10607;42.066;24.742;2023-05-17T08:17:17;30.63;;;18.60;;
20894;SDS011;10607;42.066;24.742;2023-05-17T08:19:42;33.70;;;19.15;;
20894;SDS011;10607;42.066;24.742;2023-05-17T08:22:08;34.10;;;19.85;;
20894;SDS011;10607;42.066;24.742;2023-05-17T08:24:34;31.70;;;20.13;;
20894;SDS011;10607;42.066;24.742;2023-05-17T08:26:59;36.75;;;20.60;;
20894;SDS011;10607;42.066;24.742;2023-05-17T08:29:25;35.10;;;19.92;;
20894;SDS011;10607;42.066;24.742;2023-05-17T08:31:52;36.33;;;19.48;;
20894;SDS011;10607;42.066;24.742;2023-05-17T08:34:18;29.48;;;20.55;;
20894;SDS011;10607;42.066;24.742;2023-05-17T08:36:43;32.70;;;22.25;;
20894;SDS011;10607;42.066;24.742;2023-05-17T08:39:09;29.65;;;20.90;;
20894;SDS011;10607;42.066;24.742;2023-05-17T08:41:36;32.47;;;19.65;;
20894;SDS011;10607;42.066;24.742;2023-05-17T08:44:01;41.70;;;21.45;;
20894;SDS011;10607;42.066;24.742;2023-05-17T08:46:28;34.63;;;19.65;;
20894;SDS011;10607;42.066;24.742;2023-05-17T08:48:55;45.95;;;20.08;;
20894;SDS011;10607;42.066;24.742;2023-05-17T08:51:23;34.13;;;20.67;;
20894;SDS011;10607;42.066;24.742;2023-05-17T08:53:49;35.92;;;20.90;;
20894;SDS011;10607;42.066;24.742;2023-05-17T08:56:14;43.30;;;21.40;;
20894;SDS011;10607;42.066;24.742;2023-05-17T08:58:40;34.63;;;19.73;;
20894;SDS011;10607;42.066;24.742;2023-05-17T09:01:07;35.72;;;19.67;;
20894;SDS011;10607;42.066;24.742;2023-05-17T09:03:33;41.72;;;20.58;;
20894;SDS011;10607;42.066;24.742;2023-05-17T09:05:59;34.42;;;21.27;;
20894;SDS011;10607;42.066;24.742;2023-05-17T09:08:24;39.45;;;23.00;;
20894;SDS011;10607;42.066;24.742;2023-05-17T09:10:51;43.78;;;23.80;;
20894;SDS011;10607;42.066;24.742;2023-05-17T09:13:16;40.50;;;24.88;;
20894;SDS011;10607;42.066;24.742;2023-05-17T09:15:42;44.47;;;24.10;;
20894;SDS011;10607;42.066;24.742;2023-05-17T09:18:09;41.13;;;22.30;;
20894;SDS011;10607;42.066;24.742;2023-05-17T09:20:34;40.20;;;23.15;;
20894;SDS011;10607;42.066;24.742;2023-05-17T09:23:01;37.15;;;23.08;;
20894;SDS011;10607;42.066;24.742;2023-05-17T09:25:27;38.25;;;22.73;;
20894;SDS011;10607;42.066;24.742;2023-05-17T09:27:52;36.60;;;22.90;;
20894;SDS011;10607;42.066;24.742;2023-05-17T09:30:18;38.50;;;22.98;;
20894;SDS011;10607;42.066;24.742;2023-05-17T09:32:43;39.88;;;22.77;;
20894;SDS011;10607;42.066;24.742;2023-05-17T09:35:10;39.17;;;23.33;;
20894;SDS011;10607;42.066;24.742;2023-05-17T09:37:36;42.72;;;22.33;;
20894;SDS011;10607;42.066;24.742;2023-05-17T09:40:02;33.30;;;20.55;;
20894;SDS011;10607;42.066;24.742;2023-05-17T09:42:28;35.50;;;20.70;;
20894;SDS011;10607;42.066;24.742;2023-05-17T09:44:54;41.03;;;21.55;;
20894;SDS011;10607;42.066;24.742;2023-05-17T09:47:24;31.80;;;21.27;;
20894;SDS011;10607;42.066;24.742;2023-05-17T09:49:49;36.67;;;21.73;;
20894;SDS011;10607;42.066;24.742;2023-05-17T09:52:18;36.60;;;22.38;;
20894;SDS011;10607;42.066;24.742;2023-05-17T09:54:50;32.80;;;22.10;;
20894;SDS011;10607;42.066;24.742;2023-05-17T09:57:16;43.38;;;24.80;;
20894;SDS011;10607;42.066;24.742;2023-05-17T09:59:41;38.08;;;22.60;;
20894;SDS011;10607;42.066;24.742;2023-05-17T10:02:07;36.60;;;22.35;;
20894;SDS011;10607;42.066;24.742;2023-05-17T10:04:36;36.90;;;22.92;;
20894;SDS011;10607;42.066;24.742;2023-05-17T10:07:01;41.00;;;24.27;;
20894;SDS011;10607;42.066;24.742;2023-05-17T10:09:28;43.65;;;24.10;;
20894;SDS011;10607;42.066;24.742;2023-05-17T10:11:58;38.70;;;25.23;;
20894;SDS011;10607;42.066;24.742;2023-05-17T10:14:27;44.85;;;25.35;;
20894;SDS011;10607;42.066;24.742;2023-05-17T10:16:55;46.08;;;24.30;;
20894;SDS011;10607;42.066;24.742;2023-05-17T10:19:21;46.85;;;25.30;;
20894;SDS011;10607;42.066;24.742;2023-05-17T10:21:47;52.35;;;27.08;;
20894;SDS011;10607;42.066;24.742;2023-05-17T10:24:14;45.33;;;25.77;;
20894;SDS011;10607;42.066;24.742;2023-05-17T10:26:40;44.05;;;24.58;;
20894;SDS011;10607;42.066;24.742;2023-05-17T10:29:05;36.17;;;24.02;;
20894;SDS011;10607;42.066;24.742;2023-05-17T10:31:32;34.00;;;22.65;;
20894;SDS011;10607;42.066;24.742;2023-05-17T10:33:58;31.17;;;19.50;;
20894;SDS011;10607;42.066;24.742;2023-05-17T10:36:24;34.67;;;20.77;;
20894;SDS011;10607;42.066;24.742;2023-05-17T10:38:50;30.55;;;19.83;;
20894;SDS011;10607;42.066;24.742;2023-05-17T10:41:16;34.90;;;18.33;;
20894;SDS011;10607;42.066;24.742;2023-05-17T10:43:42;35.28;;;17.90;;
20894;SDS011;10607;42.066;24.742;2023-05-17T10:46:13;29.20;;;17.50;;
20894;SDS011;10607;42.066;24.742;2023-05-17T10:48:39;27.27;;;18.17;;
20894;SDS011;10607;42.066;24.742;2023-05-17T10:51:05;37.55;;;19.30;;
20894;SDS011;10607;42.066;24.742;2023-05-17T10:53:31;29.52;;;20.17;;
20894;SDS011;10607;42.066;24.742;2023-05-17T10:55:56;32.75;;;20.50;;
20894;SDS011;10607;42.066;24.742;2023-05-17T10:58:23;34.83;;;20.35;;
20894;SDS011;10607;42.066;24.742;2023-05-17T11:00:50;31.98;;;20.05;;
20894;SDS011;10607;42.066;24.742;2023-05-17T11:03:18;35.45;;;20.17;;
20894;SDS011;10607;42.066;24.742;2023-05-17T11:06:10;32.58;;;20.58;;
20894;SDS011;10607;42.066;24.742;2023-05-17T11:08:30;35.92;;;20.75;;
20894;SDS011;10607;42.066;24.742;2023-05-17T11:11:09;33.55;;;20.08;;
20894;SDS011;10607;42.066;24.742;2023-05-17T11:13:42;43.72;;;25.63;;
20894;SDS011;10607;42.066;24.742;2023-05-17T11:16:08;35.83;;;23.70;;
20894;SDS011;10607;42.066;24.742;2023-05-17T11:21:12;40.53;;;25.63;;
20894;SDS011;10607;42.066;24.742;2023-05-17T11:23:37;34.70;;;21.85;;
20894;SDS011;10607;42.066;24.742;2023-05-17T11:26:16;35.22;;;21.42;;
20894;SDS011;10607;42.066;24.742;2023-05-17T11:28:45;38.10;;;22.98;;
20894;SDS011;10607;42.066;24.742;2023-05-17T11:31:11;33.80;;;21.48;;
20894;SDS011;10607;42.066;24.742;2023-05-17T11:33:37;34.65;;;19.90;;
20894;SDS011;10607;42.066;24.742;2023-05-17T11:36:10;33.63;;;19.77;;
20894;SDS011;10607;42.066;24.742;2023-05-17T11:38:37;27.63;;;19.15;;
20894;SDS011;10607;42.066;24.742;2023-05-17T11:41:23;26.05;;;19.17;;
20894;SDS011;10607;42.066;24.742;2023-05-17T11:43:48;30.13;;;18.50;;
20894;SDS011;10607;42.066;24.742;2023-05-17T11:46:17;24.95;;;18.75;;
20894;SDS011;10607;42.066;24.742;2023-05-17T11:48:44;28.02;;;18.85;;
20894;SDS011;10607;42.066;24.742;2023-05-17T11:51:09;27.85;;;19.85;;
20894;SDS011;10607;42.066;24.742;2023-05-17T11:53:37;31.67;;;20.95;;
20894;SDS011;10607;42.066;24.742;2023-05-17T11:56:03;35.22;;;21.42;;
20894;SDS011;10607;42.066;24.742;2023-05-17T11:58:29;32.83;;;22.17;;
20894;SDS011;10607;42.066;24.742;2023-05-17T12:00:56;32.38;;;21.48;;
20894;SDS011;10607;42.066;24.742;2023-05-17T12:03:25;29.48;;;21.48;;
20894;SDS011;10607;42.066;24.742;2023-05-17T12:06:01;32.80;;;21.42;;
20894;SDS011;10607;42.066;24.742;2023-05-17T12:08:27;30.02;;;21.77;;
20894;SDS011;10607;42.066;24.742;2023-05-17T12:10:53;31.90;;;20.15;;
20894;SDS011;10607;42.066;24.742;2023-05-17T12:13:20;28.90;;;19.77;;
20894;SDS011;10607;42.066;24.742;2023-05-17T12:15:55;24.13;;;18.40;;
20894;SDS011;10607;42.066;24.742;2023-05-17T12:18:21;26.20;;;18.92;;
20894;SDS011;10607;42.066;24.742;2023-05-17T12:20:55;27.00;;;17.65;;
20894;SDS011;10607;42.066;24.742;2023-05-17T12:23:28;19.15;;;14.70;;
20894;SDS011;10607;42.066;24.742;2023-05-17T12:26:09;20.98;;;14.32;;
20894;SDS011;10607;42.066;24.742;2023-05-17T12:28:36;23.85;;;16.23;;
20894;SDS011;10607;42.066;24.742;2023-05-17T12:31:02;28.33;;;17.55;;
20894;SDS011;10607;42.066;24.742;2023-05-17T12:33:32;28.65;;;18.83;;
20894;SDS011;10607;42.066;24.742;2023-05-17T12:35:58;27.80;;;19.13;;
20894;SDS011;10607;42.066;24.742;2023-05-17T12:38:24;24.10;;;18.65;;
20894;SDS011;10607;42.066;24.742;2023-05-17T12:40:51;29.40;;;18.77;;
20894;SDS011;10607;42.066;24.742;2023-05-17T12:43:17;23.30;;;17.13;;
20894;SDS011;10607;42.066;24.742;2023-05-17T12:45:43;27.05;;;17.73;;
20894;SDS011;10607;42.066;24.742;2023-05-17T12:48:09;26.52;;;17.80;;
20894;SDS011;10607;42.066;24.742;2023-05-17T12:50:34;24.88;;;17.45;;
20894;SDS011;10607;42.066;24.742;2023-05-17T12:53:06;28.80;;;20.08;;
20894;SDS011;10607;42.066;24.742;2023-05-17T12:55:35;26.42;;;18.17;;
20894;SDS011;10607;42.066;24.742;2023-05-17T12:58:01;27.13;;;18.50;;
20894;SDS011;10607;42.066;24.742;2023-05-17T13:00:26;26.67;;;18.63;;
20894;SDS011;10607;42.066;24.742;2023-05-17T13:02:51;31.08;;;19.73;;
20894;SDS011;10607;42.066;24.742;2023-05-17T13:05:17;31.77;;;20.55;;
20894;SDS011;10607;42.066;24.742;2023-05-17T13:07:43;34.05;;;19.90;;
20894;SDS011;10607;42.066;24.742;2023-05-17T13:10:18;29.20;;;19.80;;
20894;SDS011;10607;42.066;24.742;2023-05-17T13:12:52;31.55;;;20.98;;
20894;SDS011;10607;42.066;24.742;2023-05-17T13:15:18;31.67;;;21.45;;
20894;SDS011;10607;42.066;24.742;2023-05-17T13:17:46;31.48;;;21.17;;
20894;SDS011;10607;42.066;24.742;2023-05-17T13:20:13;34.03;;;20.33;;
20894;SDS011;10607;42.066;24.742;2023-05-17T13:22:40;33.20;;;21.38;;
20894;SDS011;10607;42.066;24.742;2023-05-17T13:25:05;30.63;;;21.58;;
20894;SDS011;10607;42.066;24.742;2023-05-17T13:27:30;32.22;;;22.02;;
20894;SDS011;10607;42.066;24.742;2023-05-17T13:29:55;32.88;;;23.77;;
20894;SDS011;10607;42.066;24.742;2023-05-17T13:32:21;32.20;;;22.08;;
20894;SDS011;10607;42.066;24.742;2023-05-17T13:34:46;29.48;;;20.27;;
20894;SDS011;10607;42.066;24.742;2023-05-17T13:37:11;30.90;;;21.88;;
20894;SDS011;10607;42.066;24.742;2023-05-17T13:39:37;29.77;;;22.20;;
20894;SDS011;10607;42.066;24.742;2023-05-17T13:42:02;29.88;;;21.95;;
20894;SDS011;10607;42.066;24.742;2023-05-17T13:44:27;32.67;;;21.67;;
20894;SDS011;10607;42.066;24.742;2023-05-17T13:46:53;37.35;;;23.85;;
20894;SDS011;10607;42.066;24.742;2023-05-17T13:49:18;33.50;;;22.60;;
20894;SDS011;10607;42.066;24.742;2023-05-17T13:51:43;33.80;;;21.42;;
20894;SDS011;10607;42.066;24.742;2023-05-17T13:54:09;40.63;;;25.05;;
20894;SDS011;10607;42.066;24.742;2023-05-17T13:56:37;33.85;;;24.48;;
20894;SDS011;10607;42.066;24.742;2023-05-17T13:59:02;39.05;;;25.23;;
20894;SDS011;10607;42.066;24.742;2023-05-17T14:01:28;37.60;;;24.42;;
20894;SDS011;10607;42.066;24.742;2023-05-17T14:03:53;39.00;;;24.83;;
20894;SDS011;10607;42.066;24.742;2023-05-17T14:06:19;38.63;;;25.08;;
20894;SDS011;10607;42.066;24.742;2023-05-17T14:08:44;35.85;;;25.88;;
20894;SDS011;10607;42.066;24.742;2023-05-17T14:11:10;33.08;;;24.58;;
20894;SDS011;10607;42.066;24.742;2023-05-17T14:13:35;37.95;;;23.65;;
20894;SDS011;10607;42.066;24.742;2023-05-17T14:16:01;32.95;;;24.58;;
20894;SDS011;10607;42.066;24.742;2023-05-17T14:18:26;34.35;;;23.25;;